createdAt,value
2022-08-07T00:00:14.909Z,21.61
2022-08-07T00:02:45.572Z,21.59
2022-08-07T00:05:12.530Z,21.59
2022-08-07T00:07:40.909Z,21.56
2022-08-07T00:10:27.022Z,21.49
2022-08-07T00:13:00.606Z,21.44
2022-08-07T00:15:38.383Z,21.39
2022-08-07T00:18:20.219Z,21.31
2022-08-07T00:20:54.183Z,21.28
2022-08-07T00:23:21.622Z,21.28
2022-08-07T00:25:59.112Z,21.31
2022-08-07T00:28:33.441Z,21.25
2022-08-07T00:31:12.613Z,21.23
2022-08-07T00:33:43.151Z,21.18
2022-08-07T00:36:14.563Z,21.14
2022-08-07T00:38:43.763Z,21.11
2022-08-07T00:41:15.087Z,21.07
2022-08-07T00:43:59.485Z,21.02
2022-08-07T00:46:29.218Z,20.93
2022-08-07T00:49:01.925Z,20.92
2022-08-07T00:51:56.739Z,20.91
2022-08-07T00:54:19.619Z,20.86
2022-08-07T00:56:51.211Z,20.85
2022-08-07T00:59:20.216Z,20.78
2022-08-07T01:02:00.053Z,20.70
2022-08-07T01:04:27.998Z,20.64
2022-08-07T01:06:59.589Z,20.62
2022-08-07T01:09:35.615Z,20.62
2022-08-07T01:12:29.846Z,20.68
2022-08-07T01:15:01.118Z,20.71
2022-08-07T01:17:29.828Z,20.75
2022-08-07T01:20:08.152Z,20.77
2022-08-07T01:22:41.497Z,20.67
2022-08-07T01:25:54.498Z,20.57
2022-08-07T01:28:08.625Z,20.44
2022-08-07T01:30:40.033Z,20.37
2022-08-07T01:33:10.669Z,20.30
2022-08-07T01:35:54.055Z,20.25
2022-08-07T01:38:29.202Z,20.15
2022-08-07T01:41:03.791Z,20.06
2022-08-07T01:43:34.809Z,19.99
2022-08-07T01:46:08.167Z,19.90
2022-08-07T01:48:42.205Z,19.88
2022-08-07T01:51:58.570Z,19.84
2022-08-07T01:54:19.208Z,19.87
2022-08-07T01:57:02.360Z,19.89
2022-08-07T01:59:38.078Z,19.87
2022-08-07T02:03:12.319Z,19.77
2022-08-07T02:05:43.313Z,19.71
2022-08-07T02:08:26.543Z,19.67
2022-08-07T02:10:58.582Z,19.68
2022-08-07T02:13:57.458Z,19.72
2022-08-07T02:16:28.386Z,19.75
2022-08-07T02:20:04.298Z,19.75
2022-08-07T02:21:57.781Z,19.65
2022-08-07T02:24:29.580Z,19.66
2022-08-07T02:27:01.208Z,19.64
2022-08-07T02:29:30.606Z,19.61
2022-08-07T02:32:01.158Z,19.56
2022-08-07T02:34:30.261Z,19.54
2022-08-07T02:37:01.906Z,19.51
2022-08-07T02:39:43.308Z,19.44
2022-08-07T02:42:18.000Z,19.44
2022-08-07T02:44:51.969Z,19.44
2022-08-07T02:47:24.769Z,19.35
2022-08-07T02:49:59.894Z,19.34
2022-08-07T02:53:07.020Z,19.39
2022-08-07T02:56:03.371Z,19.33
2022-08-07T02:58:33.480Z,19.27
2022-08-07T03:01:03.559Z,19.30
2022-08-07T03:03:49.459Z,19.31
2022-08-07T03:06:26.032Z,19.32
2022-08-07T03:09:07.446Z,19.29
2022-08-07T03:11:51.708Z,19.23
2022-08-07T03:14:27.638Z,19.19
2022-08-07T03:16:55.039Z,19.11
2022-08-07T03:19:22.904Z,19.00
2022-08-07T03:21:51.221Z,19.00
2022-08-07T03:24:27.243Z,18.96
2022-08-07T03:27:01.081Z,18.95
2022-08-07T03:29:46.183Z,18.93
2022-08-07T03:32:25.913Z,18.84
2022-08-07T03:35:01.190Z,18.84
2022-08-07T03:37:53.824Z,18.81
2022-08-07T03:40:27.434Z,18.80
2022-08-07T03:43:00.758Z,18.85
2022-08-07T03:45:30.848Z,18.82
2022-08-07T03:48:10.090Z,18.76
2022-08-07T03:50:39.169Z,18.79
2022-08-07T03:53:11.407Z,18.80
2022-08-07T03:55:57.293Z,18.81
2022-08-07T03:59:05.301Z,18.86
2022-08-07T04:01:17.475Z,18.85
2022-08-07T04:03:49.799Z,18.88
2022-08-07T04:06:37.364Z,18.86
2022-08-07T04:09:15.049Z,18.79
2022-08-07T04:12:27.462Z,18.77
2022-08-07T04:14:43.899Z,18.79
2022-08-07T04:17:21.096Z,18.77
2022-08-07T04:20:09.018Z,18.77
2022-08-07T04:22:37.407Z,18.77
2022-08-07T04:25:11.796Z,18.76
2022-08-07T04:27:44.300Z,18.77
2022-08-07T04:30:35.553Z,18.79
2022-08-07T04:33:15.445Z,18.77
2022-08-07T04:35:50.152Z,18.80
2022-08-07T04:38:19.415Z,18.85
2022-08-07T04:40:51.663Z,18.89
2022-08-07T04:44:10.026Z,18.88
2022-08-07T04:46:34.814Z,18.86
2022-08-07T04:49:37.772Z,18.91
2022-08-07T04:52:19.280Z,18.92
2022-08-07T04:58:13.926Z,18.98
2022-08-07T04:58:33.733Z,18.98
2022-08-07T05:01:18.976Z,19.04
2022-08-07T05:04:06.468Z,19.08
2022-08-07T05:06:51.601Z,19.12
2022-08-07T05:10:11.075Z,19.12
2022-08-07T05:12:52.892Z,19.06
2022-08-07T05:15:32.154Z,19.06
2022-08-07T05:18:08.519Z,19.09
2022-08-07T05:20:45.217Z,19.08
2022-08-07T05:23:23.220Z,19.09
2022-08-07T05:26:13.646Z,19.06
2022-08-07T05:28:51.262Z,19.10
2022-08-07T05:31:35.277Z,19.12
2022-08-07T05:34:11.116Z,19.16
2022-08-07T05:36:43.803Z,19.22
2022-08-07T05:40:05.988Z,19.26
2022-08-07T05:42:14.665Z,19.37
2022-08-07T05:45:14.602Z,19.46
2022-08-07T05:48:02.543Z,19.52
2022-08-07T05:50:39.497Z,19.53
2022-08-07T05:54:13.548Z,19.59
2022-08-07T05:56:03.566Z,19.64
2022-08-07T05:58:37.721Z,19.62
2022-08-07T06:01:11.021Z,19.72
2022-08-07T06:03:57.283Z,19.78
2022-08-07T06:06:29.728Z,19.80
2022-08-07T06:09:04.345Z,19.82
2022-08-07T06:11:37.905Z,19.86
2022-08-07T06:14:12.467Z,19.94
2022-08-07T06:16:55.834Z,20.04
2022-08-07T06:19:47.826Z,20.16
2022-08-07T06:22:23.062Z,20.23
2022-08-07T06:25:01.352Z,20.43
2022-08-07T06:27:44.149Z,20.64
2022-08-07T06:30:32.128Z,20.82
2022-08-07T06:33:15.849Z,21.03
2022-08-07T06:35:49.240Z,21.02
2022-08-07T06:38:32.926Z,20.83
2022-08-07T06:41:06.795Z,20.82
2022-08-07T06:43:39.374Z,20.82
2022-08-07T06:46:31.237Z,20.84
2022-08-07T06:49:04.329Z,20.89
2022-08-07T06:51:35.258Z,21.01
2022-08-07T06:55:31.951Z,21.04
2022-08-07T06:57:00.464Z,21.03
2022-08-07T07:00:17.647Z,21.07
2022-08-07T07:02:48.873Z,21.15
2022-08-07T07:05:14.105Z,21.22
2022-08-07T07:08:06.825Z,21.34
2022-08-07T07:10:36.711Z,21.39
2022-08-07T07:13:10.023Z,21.39
2022-08-07T07:15:44.483Z,21.43
2022-08-07T07:18:47.914Z,21.49
2022-08-07T07:21:27.329Z,21.53
2022-08-07T07:24:12.986Z,21.57
2022-08-07T07:26:51.883Z,21.69
2022-08-07T07:29:57.269Z,21.89
2022-08-07T07:32:13.941Z,22.00
2022-08-07T07:34:48.572Z,22.47
2022-08-07T07:37:21.981Z,22.82
2022-08-07T07:40:10.175Z,22.97
2022-08-07T07:42:50.900Z,22.76
2022-08-07T07:46:35.564Z,22.54
2022-08-07T07:48:35.286Z,22.40
2022-08-07T07:51:08.124Z,22.34
2022-08-07T07:53:52.121Z,22.34
2022-08-07T07:56:30.093Z,22.33
2022-08-07T07:59:01.977Z,22.33
2022-08-07T08:02:02.667Z,22.33
2022-08-07T08:04:25.439Z,22.33
2022-08-07T08:06:55.408Z,22.36
2022-08-07T08:09:29.593Z,22.48
2022-08-07T08:12:02.245Z,22.61
2022-08-07T08:14:34.519Z,23.14
2022-08-07T08:17:32.400Z,23.79
2022-08-07T08:20:18.752Z,25.87
2022-08-07T08:23:08.456Z,31.72
2022-08-07T08:25:58.144Z,36.48
2022-08-07T08:28:37.754Z,39.66
2022-08-07T08:31:16.371Z,41.29
2022-08-07T08:33:55.663Z,42.97
2022-08-07T08:36:29.798Z,44.49
2022-08-07T08:39:02.065Z,45.90
2022-08-07T08:41:58.611Z,46.64
2022-08-07T08:44:29.577Z,47.75
2022-08-07T08:47:05.369Z,48.11
2022-08-07T08:50:04.709Z,48.92
2022-08-07T08:52:40.789Z,49.54
2022-08-07T08:55:53.151Z,49.83
2022-08-07T08:58:24.937Z,50.19
2022-08-07T09:01:15.798Z,50.68
2022-08-07T09:04:26.009Z,51.16
2022-08-07T09:06:55.585Z,51.79
2022-08-07T09:09:47.540Z,52.11
2022-08-07T09:12:31.063Z,52.44
2022-08-07T09:16:24.118Z,52.82
2022-08-07T09:17:59.621Z,53.15
2022-08-07T09:20:58.051Z,53.79
2022-08-07T09:24:54.968Z,54.10
2022-08-07T09:26:47.721Z,54.06
2022-08-07T09:30:05.065Z,53.92
2022-08-07T09:32:31.120Z,54.04
2022-08-07T09:36:03.065Z,54.91
2022-08-07T09:38:29.143Z,55.50
2022-08-07T09:41:14.147Z,55.73
2022-08-07T09:44:06.609Z,55.94
2022-08-07T09:47:51.239Z,56.38
2022-08-07T09:50:01.738Z,56.60
2022-08-07T09:53:07.915Z,56.86
2022-08-07T09:56:37.274Z,55.63
2022-08-07T09:59:44.569Z,55.06
2022-08-07T10:02:57.570Z,55.82
2022-08-07T10:06:17.496Z,56.76
2022-08-07T10:09:07.880Z,57.09
2022-08-07T10:12:02.214Z,57.18
2022-08-07T10:15:06.621Z,57.39
2022-08-07T10:18:01.403Z,58.17
2022-08-07T10:20:57.912Z,58.32
2022-08-07T10:24:18.414Z,57.80
2022-08-07T10:27:10.315Z,57.01
2022-08-07T10:29:59.294Z,57.51
2022-08-07T10:32:37.018Z,57.97
2022-08-07T10:35:56.420Z,57.80
2022-08-07T10:38:35.831Z,53.37
2022-08-07T10:41:46.341Z,51.51
2022-08-07T10:44:28.400Z,54.94
2022-08-07T10:47:27.215Z,56.78
2022-08-07T10:50:28.076Z,57.81
2022-08-07T10:53:21.398Z,58.62
2022-08-07T10:56:02.475Z,58.54
2022-08-07T10:58:33.055Z,56.97
2022-08-07T11:01:12.753Z,55.34
2022-08-07T11:03:55.049Z,52.16
2022-08-07T11:07:03.030Z,50.67
2022-08-07T11:10:09.100Z,51.94
2022-08-07T11:12:39.169Z,54.75
2022-08-07T11:15:17.925Z,56.88
2022-08-07T11:18:03.564Z,58.38
2022-08-07T11:20:56.961Z,59.08
2022-08-07T11:23:58.065Z,58.61
2022-08-07T11:26:33.831Z,58.50
2022-08-07T11:29:13.133Z,58.91
2022-08-07T11:32:26.236Z,58.32
2022-08-07T11:34:59.718Z,58.82
2022-08-07T11:37:58.164Z,59.36
2022-08-07T11:40:51.818Z,56.73
2022-08-07T11:43:41.596Z,55.92
2022-08-07T11:46:28.137Z,55.80
2022-08-07T11:50:11.376Z,56.29
2022-08-07T11:52:35.732Z,55.73
2022-08-07T11:56:26.104Z,54.00
2022-08-07T11:58:34.887Z,52.21
2022-08-07T12:01:06.841Z,51.19
2022-08-07T12:03:48.973Z,52.50
2022-08-07T12:06:51.644Z,54.17
2022-08-07T12:09:43.012Z,52.98
2022-08-07T12:12:19.454Z,53.03
2022-08-07T12:15:01.413Z,53.09
2022-08-07T12:17:59.507Z,51.94
2022-08-07T12:20:46.345Z,48.10
2022-08-07T12:24:05.052Z,43.81
2022-08-07T12:26:42.081Z,41.41
2022-08-07T12:29:38.358Z,39.70
2022-08-07T12:32:19.472Z,38.74
2022-08-07T12:34:49.495Z,37.52
2022-08-07T12:37:23.387Z,36.89
2022-08-07T12:39:58.925Z,36.61
2022-08-07T12:42:32.017Z,35.97
2022-08-07T12:45:06.489Z,35.22
2022-08-07T12:47:54.187Z,34.94
2022-08-07T12:50:49.151Z,34.38
2022-08-07T12:54:03.103Z,34.04
2022-08-07T12:56:33.641Z,33.94
2022-08-07T12:59:02.339Z,33.46
2022-08-07T13:01:43.307Z,33.41
2022-08-07T13:04:34.508Z,33.45
2022-08-07T13:08:12.265Z,33.64
2022-08-07T13:10:51.687Z,33.88
2022-08-07T13:13:46.894Z,33.78
2022-08-07T13:16:46.746Z,33.47
2022-08-07T13:19:46.211Z,33.14
2022-08-07T13:22:32.667Z,33.11
2022-08-07T13:25:24.194Z,32.99
2022-08-07T13:28:13.528Z,33.06
2022-08-07T13:31:02.169Z,33.16
2022-08-07T13:34:34.375Z,33.10
2022-08-07T13:36:39.825Z,33.17
2022-08-07T13:39:28.431Z,33.10
2022-08-07T13:42:10.126Z,33.22
2022-08-07T13:44:39.553Z,33.18
2022-08-07T13:47:09.351Z,33.21
2022-08-07T13:50:33.660Z,33.24
2022-08-07T13:52:39.687Z,33.33
2022-08-07T13:55:25.457Z,33.42
2022-08-07T13:58:28.032Z,33.52
2022-08-07T14:01:09.094Z,33.26
2022-08-07T14:04:07.396Z,33.36
2022-08-07T14:06:37.103Z,33.41
2022-08-07T14:10:00.507Z,33.13
2022-08-07T14:12:10.511Z,32.76
2022-08-07T14:14:43.696Z,32.43
2022-08-07T14:17:32.523Z,32.40
2022-08-07T14:20:40.658Z,32.41
2022-08-07T14:23:08.549Z,32.47
2022-08-07T14:25:48.040Z,32.60
2022-08-07T14:28:16.980Z,32.66
2022-08-07T14:30:52.211Z,32.61
2022-08-07T14:33:22.327Z,32.51
2022-08-07T14:35:55.755Z,32.32
2022-08-07T14:38:31.300Z,32.36
2022-08-07T14:41:04.185Z,32.34
2022-08-07T14:43:59.429Z,32.46
2022-08-07T14:46:31.443Z,32.44
2022-08-07T14:49:55.584Z,32.41
2022-08-07T14:54:43.276Z,32.52
2022-08-07T14:57:14.927Z,32.61
2022-08-07T15:00:04.694Z,32.48
2022-08-07T15:02:34.546Z,32.43
2022-08-07T15:05:03.600Z,32.62
2022-08-07T15:07:47.727Z,32.65
2022-08-07T15:10:26.486Z,32.50
2022-08-07T15:13:06.179Z,32.41
2022-08-07T15:15:42.998Z,32.58
2022-08-07T15:18:35.719Z,32.79
2022-08-07T15:21:44.240Z,32.89
2022-08-07T15:25:15.194Z,33.02
2022-08-07T15:27:16.267Z,33.05
2022-08-07T15:30:04.385Z,33.03
2022-08-07T15:32:40.145Z,32.86
2022-08-07T15:36:01.329Z,32.68
2022-08-07T15:38:29.827Z,32.52
2022-08-07T15:41:23.605Z,32.51
2022-08-07T15:43:59.562Z,32.43
2022-08-07T15:46:31.660Z,32.34
2022-08-07T15:49:16.287Z,32.08
2022-08-07T15:54:39.654Z,31.84
2022-08-07T15:57:27.835Z,31.86
2022-08-07T15:59:59.331Z,31.82
2022-08-07T16:02:35.666Z,31.79
2022-08-07T16:05:15.570Z,31.79
2022-08-07T16:08:33.394Z,31.81
2022-08-07T16:10:37.428Z,31.90
2022-08-07T16:13:17.935Z,31.91
2022-08-07T16:16:42.895Z,31.65
2022-08-07T16:19:43.112Z,31.47
2022-08-07T16:22:33.882Z,31.29
2022-08-07T16:25:10.062Z,31.11
2022-08-07T16:30:07.194Z,31.18
2022-08-07T16:31:51.707Z,31.15
2022-08-07T16:34:39.567Z,31.00
2022-08-07T16:38:05.547Z,30.85
2022-08-07T16:40:31.861Z,30.76
2022-08-07T16:43:23.966Z,30.57
2022-08-07T16:47:05.955Z,30.52
2022-08-07T16:50:27.289Z,30.74
2022-08-07T16:52:52.715Z,30.82
2022-08-07T16:55:47.385Z,30.84
2022-08-07T16:59:10.229Z,30.81
2022-08-07T17:01:56.775Z,30.77
2022-08-07T17:05:01.369Z,30.72
2022-08-07T17:07:55.174Z,30.65
2022-08-07T17:10:32.479Z,30.61
2022-08-07T17:13:25.239Z,30.58
2022-08-07T17:16:17.144Z,30.46
2022-08-07T17:19:15.868Z,30.33
2022-08-07T17:21:50.599Z,30.12
2022-08-07T17:24:31.709Z,29.99
2022-08-07T17:27:32.550Z,29.95
2022-08-07T17:30:14.764Z,29.89
2022-08-07T17:33:00.156Z,29.82
2022-08-07T17:35:55.202Z,29.75
2022-08-07T17:38:32.187Z,29.73
2022-08-07T17:42:04.983Z,29.72
2022-08-07T17:44:15.673Z,29.61
2022-08-07T17:47:08.274Z,29.50
2022-08-07T17:49:55.427Z,29.48
2022-08-07T17:52:36.156Z,29.40
2022-08-07T17:55:13.397Z,29.29
2022-08-07T17:57:58.923Z,29.23
2022-08-07T18:00:34.743Z,29.18
2022-08-07T18:03:18.950Z,29.09
2022-08-07T18:06:01.989Z,29.04
2022-08-07T18:08:34.160Z,28.95
2022-08-07T18:12:06.354Z,28.87
2022-08-07T18:14:18.064Z,28.79
2022-08-07T18:17:07.440Z,28.80
2022-08-07T18:21:06.520Z,28.78
2022-08-07T18:22:54.087Z,28.72
2022-08-07T18:25:40.505Z,28.67
2022-08-07T18:28:58.675Z,28.62
2022-08-07T18:32:07.179Z,28.52
2022-08-07T18:35:00.837Z,28.41
2022-08-07T18:38:59.080Z,28.35
2022-08-07T18:40:50.122Z,28.30
2022-08-07T18:44:16.425Z,28.27
2022-08-07T18:47:07.884Z,28.21
2022-08-07T18:50:38.441Z,28.16
2022-08-07T18:53:15.104Z,28.07
2022-08-07T18:56:01.554Z,28.00
2022-08-07T18:58:51.580Z,27.91
2022-08-07T19:02:32.725Z,27.82
2022-08-07T19:04:54.663Z,27.61
2022-08-07T19:08:03.741Z,27.55
2022-08-07T19:10:51.585Z,27.51
2022-08-07T19:13:44.035Z,27.51
2022-08-07T19:17:01.527Z,27.50
2022-08-07T19:19:58.443Z,27.44
2022-08-07T19:23:03.168Z,27.39
2022-08-07T19:26:24.982Z,27.31
2022-08-07T19:30:53.734Z,27.27
2022-08-07T19:32:10.232Z,27.23
2022-08-07T19:34:34.001Z,27.16
2022-08-07T19:37:09.889Z,27.13
2022-08-07T19:39:57.856Z,27.10
2022-08-07T19:42:31.417Z,27.05
2022-08-07T19:45:09.329Z,27.01
2022-08-07T19:47:42.076Z,26.94
2022-08-07T19:50:43.663Z,26.89
2022-08-07T19:52:59.072Z,26.86
2022-08-07T19:55:56.684Z,26.85
2022-08-07T19:58:22.192Z,26.78
2022-08-07T20:00:57.842Z,26.71
2022-08-07T20:03:35.182Z,26.67
2022-08-07T20:06:05.040Z,26.61
2022-08-07T20:08:35.971Z,26.57
2022-08-07T20:11:12.252Z,26.54
2022-08-07T20:13:53.797Z,26.44
2022-08-07T20:16:34.896Z,26.36
2022-08-07T20:19:06.145Z,26.28
2022-08-07T20:21:41.679Z,26.27
2022-08-07T20:24:23.444Z,26.27
2022-08-07T20:26:54.813Z,26.26
2022-08-07T20:29:49.347Z,26.22
2022-08-07T20:32:22.662Z,26.18
2022-08-07T20:34:56.200Z,26.15
2022-08-07T20:37:47.050Z,26.12
2022-08-07T20:40:32.693Z,26.02
2022-08-07T20:43:03.192Z,25.96
2022-08-07T20:46:27.011Z,25.88
2022-08-07T20:48:29.531Z,25.86
2022-08-07T20:51:03.606Z,25.83
2022-08-07T20:54:04.421Z,25.83
2022-08-07T20:56:30.684Z,25.78
2022-08-07T20:59:02.789Z,25.72
2022-08-07T21:01:45.565Z,25.66
2022-08-07T21:04:27.936Z,25.56
2022-08-07T21:06:58.133Z,25.54
2022-08-07T21:09:53.274Z,25.51
2022-08-07T21:12:29.031Z,25.45
2022-08-07T21:15:02.494Z,25.45
2022-08-07T21:18:03.696Z,25.43
2022-08-07T21:20:30.342Z,25.35
2022-08-07T21:23:08.682Z,25.33
2022-08-07T21:25:56.982Z,25.30
2022-08-07T21:28:48.824Z,25.19
2022-08-07T21:31:49.398Z,25.13
2022-08-07T21:34:46.097Z,25.15
2022-08-07T21:37:57.952Z,25.18
2022-08-07T21:40:52.370Z,25.15
2022-08-07T21:43:47.576Z,25.10
2022-08-07T21:46:45.226Z,25.10
2022-08-07T21:49:25.676Z,25.09
2022-08-07T21:52:00.145Z,25.06
2022-08-07T21:55:04.333Z,25.00
2022-08-07T21:57:44.830Z,24.89
2022-08-07T22:00:25.239Z,24.81
2022-08-07T22:03:31.243Z,24.79
2022-08-07T22:06:03.850Z,24.72
2022-08-07T22:08:49.758Z,24.72
2022-08-07T22:11:18.538Z,24.67
2022-08-07T22:13:55.353Z,24.63
2022-08-07T22:16:46.823Z,24.62
2022-08-07T22:19:36.991Z,24.64
2022-08-07T22:22:21.062Z,24.54
2022-08-07T22:25:11.148Z,24.44
2022-08-07T22:28:19.902Z,24.44
2022-08-07T22:30:55.005Z,24.44
2022-08-07T22:33:57.003Z,24.41
2022-08-07T22:36:38.438Z,24.36
2022-08-07T22:39:17.060Z,24.30
2022-08-07T22:42:03.736Z,24.30
2022-08-07T22:44:58.164Z,24.26
2022-08-07T22:48:03.051Z,24.25
2022-08-07T22:50:41.745Z,24.18
2022-08-07T22:54:06.527Z,24.13
2022-08-07T22:56:29.892Z,24.05
2022-08-07T22:59:15.080Z,24.01
2022-08-07T23:01:59.237Z,23.92
2022-08-07T23:04:56.968Z,23.97
2022-08-07T23:07:53.740Z,23.95
2022-08-07T23:10:36.476Z,23.90
2022-08-07T23:13:49.176Z,23.90
2022-08-07T23:16:54.419Z,23.87
2022-08-07T23:20:03.026Z,23.87
2022-08-07T23:23:05.181Z,23.84
2022-08-07T23:26:13.989Z,23.82
2022-08-07T23:28:54.633Z,23.78
2022-08-07T23:32:49.445Z,23.79
2022-08-07T23:34:37.346Z,23.80
2022-08-07T23:38:01.137Z,23.81
2022-08-07T23:40:35.228Z,23.71
2022-08-07T23:43:24.000Z,23.69
2022-08-07T23:46:11.733Z,23.64
2022-08-07T23:48:59.917Z,23.63
2022-08-07T23:52:57.950Z,23.59
2022-08-07T23:54:52.757Z,23.58
2022-08-07T23:57:27.609Z,23.51
